createdAt,value
2022-07-31T00:02:51.368Z,15.73
2022-07-31T00:07:47.639Z,14.93
2022-07-31T00:12:43.859Z,21.48
2022-07-31T00:17:40.618Z,12.88
2022-07-31T00:22:36.933Z,13.90
2022-07-31T00:27:33.307Z,10.80
2022-07-31T00:32:29.546Z,17.83
2022-07-31T00:37:25.823Z,15.07
2022-07-31T00:42:23.041Z,13.60
2022-07-31T00:47:22.339Z,13.70
2022-07-31T00:52:21.953Z,12.25
2022-07-31T00:57:18.328Z,18.52
2022-07-31T01:02:14.633Z,18.58
2022-07-31T01:07:10.922Z,14.48
2022-07-31T01:12:09.973Z,19.67
2022-07-31T01:17:07.118Z,18.60
2022-07-31T01:22:33.155Z,18.80
2022-07-31T01:27:49.449Z,16.95
2022-07-31T01:32:50.459Z,20.42
2022-07-31T01:38:05.019Z,16.60
2022-07-31T01:43:22.210Z,18.02
2022-07-31T01:48:18.590Z,19.20
2022-07-31T01:53:19.939Z,20.38
2022-07-31T01:58:17.685Z,15.27
2022-07-31T02:03:14.646Z,15.52
2022-07-31T02:08:14.810Z,19.05
2022-07-31T02:13:12.716Z,17.90
2022-07-31T02:18:10.182Z,17.85
2022-07-31T02:23:06.596Z,16.73
2022-07-31T02:28:05.316Z,16.13
2022-07-31T02:33:03.570Z,18.25
2022-07-31T02:38:00.737Z,16.45
2022-07-31T02:42:57.214Z,15.32
2022-07-31T02:47:54.174Z,14.32
2022-07-31T02:52:51.100Z,14.00
2022-07-31T02:57:48.701Z,13.40
2022-07-31T03:02:44.964Z,14.23
2022-07-31T03:07:41.235Z,12.23
2022-07-31T03:12:39.764Z,17.88
2022-07-31T03:17:38.393Z,16.13
2022-07-31T03:22:37.600Z,15.40
2022-07-31T03:27:33.952Z,12.50
2022-07-31T03:32:30.542Z,12.90
2022-07-31T03:37:26.767Z,16.05
2022-07-31T03:42:23.748Z,15.45
2022-07-31T03:47:20.088Z,13.50
2022-07-31T03:52:16.450Z,13.80
2022-07-31T03:57:12.956Z,12.63
2022-07-31T04:02:11.904Z,13.70
2022-07-31T04:07:09.118Z,17.13
2022-07-31T04:12:06.051Z,18.20
2022-07-31T04:17:02.690Z,17.50
2022-07-31T04:21:59.508Z,14.18
2022-07-31T04:26:56.196Z,12.35
2022-07-31T04:31:52.445Z,11.98
2022-07-31T04:36:48.740Z,13.73
2022-07-31T04:41:45.071Z,12.88
2022-07-31T04:46:43.305Z,17.02
2022-07-31T04:51:39.895Z,12.48
2022-07-31T04:56:37.589Z,16.10
2022-07-31T05:01:34.311Z,15.02
2022-07-31T05:06:34.327Z,15.68
2022-07-31T05:11:30.913Z,18.10
2022-07-31T05:16:28.150Z,12.35
2022-07-31T05:21:26.881Z,11.68
2022-07-31T05:26:23.751Z,13.00
2022-07-31T05:31:20.493Z,14.77
2022-07-31T05:36:17.574Z,14.52
2022-07-31T05:41:14.171Z,15.57
2022-07-31T05:46:13.897Z,15.10
2022-07-31T05:51:10.852Z,12.23
2022-07-31T05:56:07.187Z,13.02
2022-07-31T06:01:03.877Z,15.65
2022-07-31T06:06:00.176Z,16.77
2022-07-31T06:10:56.514Z,14.98
2022-07-31T06:15:52.984Z,14.77
2022-07-31T06:20:49.430Z,12.20
2022-07-31T06:25:45.826Z,14.73
2022-07-31T06:30:43.946Z,13.98
2022-07-31T06:35:40.228Z,11.25
2022-07-31T06:40:36.495Z,9.38
2022-07-31T06:45:50.901Z,10.20
2022-07-31T06:50:48.676Z,9.70
2022-07-31T06:55:48.614Z,10.60
2022-07-31T07:00:44.903Z,6.50
2022-07-31T07:05:45.272Z,8.68
2022-07-31T07:10:41.782Z,5.00
2022-07-31T07:15:38.022Z,7.00
2022-07-31T07:20:34.267Z,10.13
2022-07-31T07:25:30.556Z,11.77
2022-07-31T07:30:28.576Z,13.23
2022-07-31T07:35:25.075Z,9.75
2022-07-31T07:40:21.428Z,13.80
2022-07-31T07:45:17.720Z,11.07
2022-07-31T07:50:15.579Z,9.30
2022-07-31T07:55:12.571Z,10.68
2022-07-31T08:00:10.735Z,8.93
2022-07-31T08:05:07.190Z,6.45
2022-07-31T08:10:04.487Z,7.55
2022-07-31T08:15:00.847Z,9.07
2022-07-31T08:19:57.118Z,10.32
2022-07-31T08:24:53.920Z,7.95
2022-07-31T08:29:50.628Z,8.75
2022-07-31T08:34:47.573Z,7.57
2022-07-31T08:39:43.808Z,7.95
2022-07-31T08:44:40.647Z,7.22
2022-07-31T08:49:39.653Z,7.35
2022-07-31T08:54:36.527Z,7.47
2022-07-31T08:59:32.876Z,11.07
2022-07-31T09:04:29.166Z,6.50
2022-07-31T09:09:26.036Z,6.43
2022-07-31T09:14:47.427Z,7.53
2022-07-31T09:19:52.928Z,9.07
2022-07-31T09:24:51.486Z,6.20
2022-07-31T09:29:49.444Z,7.85
2022-07-31T09:34:46.071Z,7.70
2022-07-31T09:39:52.303Z,5.13
2022-07-31T09:44:49.999Z,4.78
2022-07-31T09:49:51.808Z,7.30
2022-07-31T09:54:48.489Z,4.20
2022-07-31T09:59:44.852Z,6.15
2022-07-31T10:04:42.503Z,4.40
2022-07-31T10:09:39.560Z,5.45
2022-07-31T10:14:39.930Z,6.18
2022-07-31T10:19:37.661Z,4.57
2022-07-31T10:24:36.051Z,6.00
2022-07-31T10:29:33.412Z,4.43
2022-07-31T10:34:29.707Z,6.43
2022-07-31T10:39:31.385Z,4.88
2022-07-31T10:44:35.409Z,9.00
2022-07-31T10:49:44.734Z,6.25
2022-07-31T10:54:42.711Z,6.72
2022-07-31T10:59:42.960Z,6.20
2022-07-31T11:04:41.057Z,5.80
2022-07-31T11:09:51.250Z,4.10
2022-07-31T11:14:48.227Z,5.43
2022-07-31T11:19:44.554Z,4.85
2022-07-31T11:24:40.933Z,5.65
2022-07-31T11:29:58.992Z,10.23
2022-07-31T11:34:55.531Z,4.30
2022-07-31T11:39:52.902Z,3.25
2022-07-31T11:44:49.443Z,3.75
2022-07-31T11:49:49.016Z,4.60
2022-07-31T11:54:45.831Z,6.50
2022-07-31T11:59:46.326Z,4.72
2022-07-31T12:04:45.684Z,8.52
2022-07-31T12:10:00.269Z,6.53
2022-07-31T12:14:58.767Z,7.85
2022-07-31T12:19:57.972Z,5.90
2022-07-31T12:25:03.149Z,5.53
2022-07-31T12:30:17.989Z,4.82
2022-07-31T12:35:14.268Z,4.15
2022-07-31T12:40:20.896Z,5.72
2022-07-31T12:45:27.785Z,4.82
2022-07-31T12:50:24.908Z,6.50
2022-07-31T12:55:22.356Z,4.93
2022-07-31T13:00:23.467Z,7.85
2022-07-31T13:05:20.091Z,4.47
2022-07-31T13:10:21.302Z,5.30
2022-07-31T13:15:23.127Z,7.13
2022-07-31T13:20:19.408Z,5.40
2022-07-31T13:25:16.239Z,4.72
2022-07-31T13:30:14.111Z,5.28
2022-07-31T13:35:28.022Z,4.25
2022-07-31T13:40:44.536Z,4.35
2022-07-31T13:45:40.822Z,4.80
2022-07-31T13:50:37.545Z,5.97
2022-07-31T13:55:33.900Z,4.55
2022-07-31T14:00:30.714Z,4.07
2022-07-31T14:05:27.738Z,6.78
2022-07-31T14:10:24.168Z,3.90
2022-07-31T14:15:20.918Z,5.68
2022-07-31T14:20:17.237Z,4.70
2022-07-31T14:25:13.620Z,4.60
2022-07-31T14:30:10.344Z,3.95
2022-07-31T14:35:08.550Z,4.75
2022-07-31T14:40:05.424Z,4.80
2022-07-31T14:45:03.095Z,5.22
2022-07-31T14:50:07.588Z,5.15
2022-07-31T14:55:06.652Z,6.45
2022-07-31T15:00:03.657Z,3.58
2022-07-31T15:06:55.464Z,5.05
2022-07-31T15:10:16.298Z,6.43
2022-07-31T15:15:12.597Z,7.75
2022-07-31T15:20:09.099Z,5.43
2022-07-31T15:25:05.783Z,8.55
2022-07-31T15:30:06.857Z,5.22
2022-07-31T15:35:05.175Z,6.05
2022-07-31T15:40:03.747Z,9.50
2022-07-31T15:45:00.342Z,8.48
2022-07-31T15:49:56.613Z,9.68
2022-07-31T15:54:54.032Z,10.23
2022-07-31T15:59:50.997Z,9.95
2022-07-31T16:04:53.006Z,7.68
2022-07-31T16:10:03.472Z,8.82
2022-07-31T16:15:08.000Z,8.75
2022-07-31T16:20:08.884Z,12.23
2022-07-31T16:25:06.365Z,12.75
2022-07-31T16:30:03.289Z,13.38
2022-07-31T16:35:01.299Z,8.35
2022-07-31T16:39:59.682Z,7.63
2022-07-31T16:44:56.384Z,8.73
2022-07-31T16:49:53.212Z,8.27
2022-07-31T16:54:49.794Z,12.00
2022-07-31T16:59:56.473Z,11.57
2022-07-31T17:04:54.284Z,12.10
2022-07-31T17:09:50.566Z,11.25
2022-07-31T17:14:48.437Z,10.80
2022-07-31T17:19:47.423Z,13.23
2022-07-31T17:24:44.445Z,11.95
2022-07-31T17:29:40.716Z,11.27
2022-07-31T17:34:37.449Z,14.60
2022-07-31T17:39:33.775Z,11.75
2022-07-31T17:44:30.139Z,16.38
2022-07-31T17:49:27.978Z,12.40
2022-07-31T17:54:24.396Z,16.05
2022-07-31T17:59:20.778Z,14.98
2022-07-31T18:04:17.077Z,17.48
2022-07-31T18:09:14.283Z,15.18
2022-07-31T18:14:10.514Z,15.05
2022-07-31T18:19:07.864Z,16.35
2022-07-31T18:24:05.513Z,13.85
2022-07-31T18:29:01.900Z,13.40
2022-07-31T18:33:58.135Z,15.52
2022-07-31T18:38:54.486Z,13.27
2022-07-31T18:43:50.760Z,14.63
2022-07-31T18:48:50.741Z,16.48
2022-07-31T18:53:51.032Z,17.15
2022-07-31T18:58:47.270Z,13.65
2022-07-31T19:03:43.564Z,14.50
2022-07-31T19:08:39.921Z,18.42
2022-07-31T19:13:36.218Z,16.73
2022-07-31T19:18:32.451Z,19.13
2022-07-31T19:23:28.711Z,13.40
2022-07-31T19:28:26.636Z,14.05
2022-07-31T19:33:23.415Z,10.40
2022-07-31T19:38:19.668Z,10.82
2022-07-31T19:43:15.957Z,11.70
2022-07-31T19:48:16.643Z,11.95
2022-07-31T19:53:13.177Z,15.35
2022-07-31T19:58:09.460Z,9.85
2022-07-31T20:03:05.758Z,9.30
2022-07-31T20:08:02.049Z,10.27
2022-07-31T20:12:58.329Z,10.45
2022-07-31T20:17:54.583Z,8.95
2022-07-31T20:22:50.939Z,7.70
2022-07-31T20:27:47.631Z,8.18
2022-07-31T20:32:48.636Z,6.15
2022-07-31T20:37:45.582Z,5.45
2022-07-31T20:42:41.971Z,5.15
2022-07-31T20:47:38.262Z,6.65
2022-07-31T20:52:34.518Z,5.95
2022-07-31T20:57:31.094Z,7.50
2022-07-31T21:02:27.354Z,7.28
2022-07-31T21:07:23.596Z,9.93
2022-07-31T21:12:19.846Z,6.55
2022-07-31T21:17:16.153Z,11.88
2022-07-31T21:22:12.409Z,6.20
2022-07-31T21:27:10.766Z,7.53
2022-07-31T21:32:07.826Z,8.77
2022-07-31T21:37:04.536Z,8.70
2022-07-31T21:42:03.346Z,8.68
2022-07-31T21:47:01.353Z,9.60
2022-07-31T21:52:00.376Z,9.68
2022-07-31T21:56:56.673Z,7.70
2022-07-31T22:01:57.968Z,7.57
2022-07-31T22:07:16.930Z,9.30
2022-07-31T22:12:13.276Z,10.27
2022-07-31T22:17:09.508Z,12.13
2022-07-31T22:22:09.641Z,11.93
2022-07-31T22:27:24.239Z,12.70
2022-07-31T22:32:20.511Z,11.82
2022-07-31T22:37:16.840Z,12.70
2022-07-31T22:42:13.203Z,11.70
2022-07-31T22:47:09.497Z,13.95
2022-07-31T22:52:07.268Z,16.45
2022-07-31T22:57:04.072Z,12.40
2022-07-31T23:02:04.526Z,13.27
2022-07-31T23:07:01.155Z,11.30
2022-07-31T23:11:57.807Z,11.73
2022-07-31T23:16:54.091Z,11.10
2022-07-31T23:21:50.372Z,13.48
2022-07-31T23:26:46.625Z,13.38
2022-07-31T23:31:42.898Z,12.70
2022-07-31T23:36:39.189Z,13.75
2022-07-31T23:41:54.123Z,17.73
2022-07-31T23:46:50.352Z,14.40
2022-07-31T23:51:46.718Z,11.35
2022-07-31T23:56:43.082Z,16.13
